sensor_id;sensor_type;location;lat;lon;timestamp;P1;durP1;ratioP1;P2;durP2;ratioP2
3865;SDS011;1948;53.250;10.412;2023-06-10T00:00:01;10.70;;;5.73;;
3865;SDS011;1948;53.250;10.412;2023-06-10T00:02:32;10.77;;;5.23;;
3865;SDS011;1948;53.250;10.412;2023-06-10T00:05:02;32.57;;;6.67;;
3865;SDS011;1948;53.250;10.412;2023-06-10T00:07:29;14.30;;;5.80;;
3865;SDS011;1948;53.250;10.412;2023-06-10T00:09:56;23.83;;;6.23;;
3865;SDS011;1948;53.250;10.412;2023-06-10T00:12:23;9.80;;;5.83;;
3865;SDS011;1948;53.250;10.412;2023-06-10T00:14:50;13.20;;;7.07;;
3865;SDS011;1948;53.250;10.412;2023-06-10T00:17:22;11.80;;;5.90;;
3865;SDS011;1948;53.250;10.412;2023-06-10T00:19:49;18.20;;;6.57;;
3865;SDS011;1948;53.250;10.412;2023-06-10T00:22:16;14.43;;;6.57;;
3865;SDS011;1948;53.250;10.412;2023-06-10T00:24:43;10.20;;;6.47;;
3865;SDS011;1948;53.250;10.412;2023-06-10T00:27:11;11.57;;;6.97;;
3865;SDS011;1948;53.250;10.412;2023-06-10T00:29:37;12.00;;;7.00;;
3865;SDS011;1948;53.250;10.412;2023-06-10T00:32:05;24.77;;;6.10;;
3865;SDS011;1948;53.250;10.412;2023-06-10T00:34:35;14.87;;;5.90;;
3865;SDS011;1948;53.250;10.412;2023-06-10T00:37:02;12.67;;;5.77;;
3865;SDS011;1948;53.250;10.412;2023-06-10T00:39:29;16.60;;;5.60;;
3865;SDS011;1948;53.250;10.412;2023-06-10T00:41:56;8.83;;;5.63;;
3865;SDS011;1948;53.250;10.412;2023-06-10T00:44:23;8.30;;;5.90;;
3865;SDS011;1948;53.250;10.412;2023-06-10T00:46:52;11.33;;;6.17;;
3865;SDS011;1948;53.250;10.412;2023-06-10T00:49:22;8.57;;;5.50;;
3865;SDS011;1948;53.250;10.412;2023-06-10T00:51:51;15.17;;;6.07;;
3865;SDS011;1948;53.250;10.412;2023-06-10T00:54:19;7.47;;;5.87;;
3865;SDS011;1948;53.250;10.412;2023-06-10T00:56:50;14.90;;;6.40;;
3865;SDS011;1948;53.250;10.412;2023-06-10T00:59:18;9.70;;;5.63;;
3865;SDS011;1948;53.250;10.412;2023-06-10T01:01:45;7.43;;;5.40;;
3865;SDS011;1948;53.250;10.412;2023-06-10T01:04:15;9.50;;;5.30;;
3865;SDS011;1948;53.250;10.412;2023-06-10T01:06:49;7.50;;;5.63;;
3865;SDS011;1948;53.250;10.412;2023-06-10T01:12:33;9.10;;;5.50;;
3865;SDS011;1948;53.250;10.412;2023-06-10T01:15:30;8.43;;;4.90;;
3865;SDS011;1948;53.250;10.412;2023-06-10T01:17:58;16.40;;;5.73;;
3865;SDS011;1948;53.250;10.412;2023-06-10T01:20:36;9.90;;;5.00;;
3865;SDS011;1948;53.250;10.412;2023-06-10T01:23:06;14.70;;;5.33;;
3865;SDS011;1948;53.250;10.412;2023-06-10T01:25:40;10.30;;;5.80;;
3865;SDS011;1948;53.250;10.412;2023-06-10T01:31:00;16.33;;;5.50;;
3865;SDS011;1948;53.250;10.412;2023-06-10T01:34:03;15.93;;;5.77;;
3865;SDS011;1948;53.250;10.412;2023-06-10T01:36:37;9.70;;;5.00;;
3865;SDS011;1948;53.250;10.412;2023-06-10T01:39:08;12.13;;;5.07;;
3865;SDS011;1948;53.250;10.412;2023-06-10T01:41:36;12.80;;;5.60;;
3865;SDS011;1948;53.250;10.412;2023-06-10T01:44:04;18.03;;;6.00;;
3865;SDS011;1948;53.250;10.412;2023-06-10T01:46:31;8.97;;;4.90;;
3865;SDS011;1948;53.250;10.412;2023-06-10T01:49:01;19.03;;;5.73;;
3865;SDS011;1948;53.250;10.412;2023-06-10T01:51:28;14.67;;;5.53;;
3865;SDS011;1948;53.250;10.412;2023-06-10T01:53:57;11.13;;;5.30;;
3865;SDS011;1948;53.250;10.412;2023-06-10T01:56:24;11.90;;;5.53;;
3865;SDS011;1948;53.250;10.412;2023-06-10T01:58:51;8.70;;;5.40;;
3865;SDS011;1948;53.250;10.412;2023-06-10T02:01:21;9.80;;;4.93;;
3865;SDS011;1948;53.250;10.412;2023-06-10T02:03:51;10.20;;;5.10;;
3865;SDS011;1948;53.250;10.412;2023-06-10T02:06:20;12.50;;;5.30;;
3865;SDS011;1948;53.250;10.412;2023-06-10T02:08:47;9.10;;;6.10;;
3865;SDS011;1948;53.250;10.412;2023-06-10T02:11:14;9.17;;;5.30;;
3865;SDS011;1948;53.250;10.412;2023-06-10T02:13:41;16.50;;;4.77;;
3865;SDS011;1948;53.250;10.412;2023-06-10T02:16:10;8.43;;;4.57;;
3865;SDS011;1948;53.250;10.412;2023-06-10T02:18:41;8.77;;;5.13;;
3865;SDS011;1948;53.250;10.412;2023-06-10T02:21:10;12.23;;;5.77;;
3865;SDS011;1948;53.250;10.412;2023-06-10T02:23:37;10.53;;;4.57;;
3865;SDS011;1948;53.250;10.412;2023-06-10T02:26:04;19.03;;;6.03;;
3865;SDS011;1948;53.250;10.412;2023-06-10T02:28:37;15.37;;;4.67;;
3865;SDS011;1948;53.250;10.412;2023-06-10T02:31:04;7.70;;;5.03;;
3865;SDS011;1948;53.250;10.412;2023-06-10T02:33:31;11.03;;;4.97;;
3865;SDS011;1948;53.250;10.412;2023-06-10T02:36:00;9.40;;;4.60;;
3865;SDS011;1948;53.250;10.412;2023-06-10T02:38:27;5.90;;;4.27;;
3865;SDS011;1948;53.250;10.412;2023-06-10T02:40:53;16.73;;;5.70;;
3865;SDS011;1948;53.250;10.412;2023-06-10T02:43:21;11.50;;;4.53;;
3865;SDS011;1948;53.250;10.412;2023-06-10T02:45:50;6.57;;;4.20;;
3865;SDS011;1948;53.250;10.412;2023-06-10T02:48:17;9.97;;;5.23;;
3865;SDS011;1948;53.250;10.412;2023-06-10T02:50:49;10.53;;;4.63;;
3865;SDS011;1948;53.250;10.412;2023-06-10T02:53:16;10.00;;;4.90;;
3865;SDS011;1948;53.250;10.412;2023-06-10T02:55:45;9.90;;;4.23;;
3865;SDS011;1948;53.250;10.412;2023-06-10T02:58:11;12.27;;;5.60;;
3865;SDS011;1948;53.250;10.412;2023-06-10T03:00:38;11.60;;;5.07;;
3865;SDS011;1948;53.250;10.412;2023-06-10T03:03:07;10.33;;;4.80;;
3865;SDS011;1948;53.250;10.412;2023-06-10T03:05:34;15.90;;;4.60;;
3865;SDS011;1948;53.250;10.412;2023-06-10T03:08:01;14.43;;;5.00;;
3865;SDS011;1948;53.250;10.412;2023-06-10T03:10:28;14.93;;;4.90;;
3865;SDS011;1948;53.250;10.412;2023-06-10T03:13:03;25.63;;;4.33;;
3865;SDS011;1948;53.250;10.412;2023-06-10T03:15:33;8.33;;;4.23;;
3865;SDS011;1948;53.250;10.412;2023-06-10T03:18:02;13.40;;;4.40;;
3865;SDS011;1948;53.250;10.412;2023-06-10T03:20:29;10.00;;;4.20;;
3865;SDS011;1948;53.250;10.412;2023-06-10T03:22:56;9.50;;;4.00;;
3865;SDS011;1948;53.250;10.412;2023-06-10T03:25:26;11.90;;;5.27;;
3865;SDS011;1948;53.250;10.412;2023-06-10T03:27:55;10.50;;;4.67;;
3865;SDS011;1948;53.250;10.412;2023-06-10T03:30:22;9.40;;;3.90;;
3865;SDS011;1948;53.250;10.412;2023-06-10T03:32:51;10.03;;;3.77;;
3865;SDS011;1948;53.250;10.412;2023-06-10T03:35:18;31.73;;;4.23;;
3865;SDS011;1948;53.250;10.412;2023-06-10T03:37:45;10.50;;;4.43;;
3865;SDS011;1948;53.250;10.412;2023-06-10T03:40:12;13.43;;;4.40;;
3865;SDS011;1948;53.250;10.412;2023-06-10T03:42:42;10.03;;;4.10;;
3865;SDS011;1948;53.250;10.412;2023-06-10T03:45:12;9.17;;;4.20;;
3865;SDS011;1948;53.250;10.412;2023-06-10T03:47:39;3.40;;;3.10;;
3865;SDS011;1948;53.250;10.412;2023-06-10T03:50:12;15.07;;;3.77;;
3865;SDS011;1948;53.250;10.412;2023-06-10T03:52:39;18.77;;;4.97;;
3865;SDS011;1948;53.250;10.412;2023-06-10T03:55:07;9.20;;;3.90;;
3865;SDS011;1948;53.250;10.412;2023-06-10T03:57:35;12.03;;;4.00;;
3865;SDS011;1948;53.250;10.412;2023-06-10T04:00:02;9.30;;;4.53;;
3865;SDS011;1948;53.250;10.412;2023-06-10T04:02:38;4.40;;;3.63;;
3865;SDS011;1948;53.250;10.412;2023-06-10T04:05:13;6.53;;;4.30;;
3865;SDS011;1948;53.250;10.412;2023-06-10T04:07:42;16.80;;;4.03;;
3865;SDS011;1948;53.250;10.412;2023-06-10T04:10:10;11.10;;;3.67;;
3865;SDS011;1948;53.250;10.412;2023-06-10T04:12:38;31.00;;;4.23;;
3865;SDS011;1948;53.250;10.412;2023-06-10T04:15:05;7.57;;;3.80;;
3865;SDS011;1948;53.250;10.412;2023-06-10T04:17:34;11.40;;;4.00;;
3865;SDS011;1948;53.250;10.412;2023-06-10T04:20:01;6.93;;;4.10;;
3865;SDS011;1948;53.250;10.412;2023-06-10T04:22:30;12.33;;;4.00;;
3865;SDS011;1948;53.250;10.412;2023-06-10T04:24:57;14.80;;;3.80;;
3865;SDS011;1948;53.250;10.412;2023-06-10T04:27:26;9.97;;;4.40;;
3865;SDS011;1948;53.250;10.412;2023-06-10T04:29:54;4.63;;;3.13;;
3865;SDS011;1948;53.250;10.412;2023-06-10T04:32:20;15.80;;;3.60;;
3865;SDS011;1948;53.250;10.412;2023-06-10T04:34:50;6.13;;;3.70;;
3865;SDS011;1948;53.250;10.412;2023-06-10T04:37:19;7.43;;;3.63;;
3865;SDS011;1948;53.250;10.412;2023-06-10T04:39:47;8.57;;;3.73;;
3865;SDS011;1948;53.250;10.412;2023-06-10T04:42:14;12.00;;;4.37;;
3865;SDS011;1948;53.250;10.412;2023-06-10T04:44:41;11.90;;;4.60;;
3865;SDS011;1948;53.250;10.412;2023-06-10T04:47:15;25.37;;;4.20;;
3865;SDS011;1948;53.250;10.412;2023-06-10T04:49:43;10.33;;;4.80;;
3865;SDS011;1948;53.250;10.412;2023-06-10T04:52:10;15.53;;;3.87;;
3865;SDS011;1948;53.250;10.412;2023-06-10T04:54:37;9.30;;;3.83;;
3865;SDS011;1948;53.250;10.412;2023-06-10T04:57:07;11.87;;;3.97;;
3865;SDS011;1948;53.250;10.412;2023-06-10T04:59:34;6.97;;;3.43;;
3865;SDS011;1948;53.250;10.412;2023-06-10T05:02:04;5.63;;;3.63;;
3865;SDS011;1948;53.250;10.412;2023-06-10T05:04:31;8.27;;;3.47;;
3865;SDS011;1948;53.250;10.412;2023-06-10T05:07:03;14.57;;;4.00;;
3865;SDS011;1948;53.250;10.412;2023-06-10T05:09:31;12.10;;;4.47;;
3865;SDS011;1948;53.250;10.412;2023-06-10T05:11:59;7.90;;;3.37;;
3865;SDS011;1948;53.250;10.412;2023-06-10T05:14:29;12.37;;;3.97;;
3865;SDS011;1948;53.250;10.412;2023-06-10T05:16:55;7.70;;;3.53;;
3865;SDS011;1948;53.250;10.412;2023-06-10T05:19:32;21.17;;;3.70;;
3865;SDS011;1948;53.250;10.412;2023-06-10T05:21:59;9.20;;;3.60;;
3865;SDS011;1948;53.250;10.412;2023-06-10T05:24:29;8.47;;;3.67;;
3865;SDS011;1948;53.250;10.412;2023-06-10T05:26:56;14.07;;;4.80;;
3865;SDS011;1948;53.250;10.412;2023-06-10T05:29:25;7.87;;;4.00;;
3865;SDS011;1948;53.250;10.412;2023-06-10T05:31:54;15.10;;;4.30;;
3865;SDS011;1948;53.250;10.412;2023-06-10T05:34:23;14.33;;;4.00;;
3865;SDS011;1948;53.250;10.412;2023-06-10T05:36:53;13.30;;;5.00;;
3865;SDS011;1948;53.250;10.412;2023-06-10T05:39:20;11.30;;;3.93;;
3865;SDS011;1948;53.250;10.412;2023-06-10T05:41:51;8.83;;;4.07;;
3865;SDS011;1948;53.250;10.412;2023-06-10T05:44:22;13.60;;;4.07;;
3865;SDS011;1948;53.250;10.412;2023-06-10T05:46:49;7.60;;;3.90;;
3865;SDS011;1948;53.250;10.412;2023-06-10T05:49:19;11.43;;;3.93;;
3865;SDS011;1948;53.250;10.412;2023-06-10T05:51:46;12.40;;;3.30;;
3865;SDS011;1948;53.250;10.412;2023-06-10T05:54:13;7.57;;;3.53;;
3865;SDS011;1948;53.250;10.412;2023-06-10T05:56:40;9.23;;;3.90;;
3865;SDS011;1948;53.250;10.412;2023-06-10T05:59:07;9.23;;;3.60;;
3865;SDS011;1948;53.250;10.412;2023-06-10T06:01:34;15.30;;;4.37;;
3865;SDS011;1948;53.250;10.412;2023-06-10T06:04:03;7.90;;;3.60;;
3865;SDS011;1948;53.250;10.412;2023-06-10T06:06:34;3.60;;;3.30;;
3865;SDS011;1948;53.250;10.412;2023-06-10T06:09:04;4.27;;;3.77;;
3865;SDS011;1948;53.250;10.412;2023-06-10T06:11:34;10.40;;;3.87;;
3865;SDS011;1948;53.250;10.412;2023-06-10T06:14:02;12.87;;;4.50;;
3865;SDS011;1948;53.250;10.412;2023-06-10T06:16:31;10.83;;;3.80;;
3865;SDS011;1948;53.250;10.412;2023-06-10T06:19:01;11.30;;;3.50;;
3865;SDS011;1948;53.250;10.412;2023-06-10T06:21:28;9.77;;;3.60;;
3865;SDS011;1948;53.250;10.412;2023-06-10T06:24:02;9.37;;;4.10;;
3865;SDS011;1948;53.250;10.412;2023-06-10T06:26:37;7.33;;;3.77;;
3865;SDS011;1948;53.250;10.412;2023-06-10T06:29:04;11.60;;;4.50;;
3865;SDS011;1948;53.250;10.412;2023-06-10T06:31:31;6.97;;;3.30;;
3865;SDS011;1948;53.250;10.412;2023-06-10T06:33:58;13.07;;;4.20;;
3865;SDS011;1948;53.250;10.412;2023-06-10T06:36:25;5.70;;;3.37;;
3865;SDS011;1948;53.250;10.412;2023-06-10T06:38:55;13.60;;;4.00;;
3865;SDS011;1948;53.250;10.412;2023-06-10T06:41:22;12.30;;;4.33;;
3865;SDS011;1948;53.250;10.412;2023-06-10T06:43:49;6.70;;;3.63;;
3865;SDS011;1948;53.250;10.412;2023-06-10T06:46:16;6.80;;;3.57;;
3865;SDS011;1948;53.250;10.412;2023-06-10T06:48:45;10.33;;;4.20;;
3865;SDS011;1948;53.250;10.412;2023-06-10T06:51:12;9.27;;;3.13;;
3865;SDS011;1948;53.250;10.412;2023-06-10T06:53:39;14.40;;;4.27;;
3865;SDS011;1948;53.250;10.412;2023-06-10T06:56:11;17.60;;;3.93;;
3865;SDS011;1948;53.250;10.412;2023-06-10T06:58:38;10.20;;;3.20;;
3865;SDS011;1948;53.250;10.412;2023-06-10T07:01:09;14.13;;;4.67;;
3865;SDS011;1948;53.250;10.412;2023-06-10T07:03:36;16.20;;;3.80;;
3865;SDS011;1948;53.250;10.412;2023-06-10T07:06:03;8.20;;;3.90;;
3865;SDS011;1948;53.250;10.412;2023-06-10T07:08:33;4.33;;;3.53;;
3865;SDS011;1948;53.250;10.412;2023-06-10T07:10:59;10.60;;;4.40;;
3865;SDS011;1948;53.250;10.412;2023-06-10T07:13:27;13.27;;;3.93;;
3865;SDS011;1948;53.250;10.412;2023-06-10T07:15:54;15.17;;;4.63;;
3865;SDS011;1948;53.250;10.412;2023-06-10T07:18:20;7.83;;;3.50;;
3865;SDS011;1948;53.250;10.412;2023-06-10T07:20:47;8.30;;;3.77;;
3865;SDS011;1948;53.250;10.412;2023-06-10T07:23:17;9.80;;;3.90;;
3865;SDS011;1948;53.250;10.412;2023-06-10T07:25:49;12.90;;;3.80;;
3865;SDS011;1948;53.250;10.412;2023-06-10T07:28:18;18.30;;;4.40;;
3865;SDS011;1948;53.250;10.412;2023-06-10T07:30:45;5.57;;;3.20;;
3865;SDS011;1948;53.250;10.412;2023-06-10T07:33:14;10.23;;;3.73;;
3865;SDS011;1948;53.250;10.412;2023-06-10T07:35:43;9.63;;;3.40;;
3865;SDS011;1948;53.250;10.412;2023-06-10T07:38:13;15.80;;;3.67;;
3865;SDS011;1948;53.250;10.412;2023-06-10T07:40:40;12.77;;;3.87;;
3865;SDS011;1948;53.250;10.412;2023-06-10T07:43:07;9.03;;;4.17;;
3865;SDS011;1948;53.250;10.412;2023-06-10T07:45:36;8.50;;;3.67;;
3865;SDS011;1948;53.250;10.412;2023-06-10T07:48:05;16.30;;;3.47;;
3865;SDS011;1948;53.250;10.412;2023-06-10T07:50:35;14.37;;;4.10;;
3865;SDS011;1948;53.250;10.412;2023-06-10T07:53:06;9.90;;;3.83;;
3865;SDS011;1948;53.250;10.412;2023-06-10T07:55:36;10.67;;;3.63;;
3865;SDS011;1948;53.250;10.412;2023-06-10T07:58:02;11.37;;;4.50;;
3865;SDS011;1948;53.250;10.412;2023-06-10T08:00:31;11.90;;;3.90;;
3865;SDS011;1948;53.250;10.412;2023-06-10T08:02:58;7.37;;;3.47;;
3865;SDS011;1948;53.250;10.412;2023-06-10T08:05:28;12.33;;;3.90;;
3865;SDS011;1948;53.250;10.412;2023-06-10T08:07:57;15.60;;;3.73;;
3865;SDS011;1948;53.250;10.412;2023-06-10T08:10:28;6.93;;;3.20;;
3865;SDS011;1948;53.250;10.412;2023-06-10T08:12:58;7.20;;;3.23;;
3865;SDS011;1948;53.250;10.412;2023-06-10T08:15:27;19.23;;;4.20;;
3865;SDS011;1948;53.250;10.412;2023-06-10T08:17:54;6.97;;;3.70;;
3865;SDS011;1948;53.250;10.412;2023-06-10T08:20:26;7.33;;;4.33;;
3865;SDS011;1948;53.250;10.412;2023-06-10T08:22:56;13.43;;;4.60;;
3865;SDS011;1948;53.250;10.412;2023-06-10T08:25:22;13.07;;;3.97;;
3865;SDS011;1948;53.250;10.412;2023-06-10T08:27:49;11.97;;;4.50;;
3865;SDS011;1948;53.250;10.412;2023-06-10T08:30:18;10.03;;;4.20;;
3865;SDS011;1948;53.250;10.412;2023-06-10T08:32:47;8.20;;;4.30;;
3865;SDS011;1948;53.250;10.412;2023-06-10T08:35:14;9.60;;;4.27;;
3865;SDS011;1948;53.250;10.412;2023-06-10T08:37:41;20.07;;;4.23;;
3865;SDS011;1948;53.250;10.412;2023-06-10T08:40:11;10.73;;;4.17;;
3865;SDS011;1948;53.250;10.412;2023-06-10T08:45:39;13.00;;;4.00;;
3865;SDS011;1948;53.250;10.412;2023-06-10T08:48:12;10.90;;;4.90;;
3865;SDS011;1948;53.250;10.412;2023-06-10T08:50:41;14.67;;;4.90;;
3865;SDS011;1948;53.250;10.412;2023-06-10T08:53:08;18.23;;;4.57;;
3865;SDS011;1948;53.250;10.412;2023-06-10T08:55:45;8.50;;;3.97;;
3865;SDS011;1948;53.250;10.412;2023-06-10T08:58:20;8.13;;;4.27;;
3865;SDS011;1948;53.250;10.412;2023-06-10T09:00:50;14.63;;;4.93;;
3865;SDS011;1948;53.250;10.412;2023-06-10T09:03:19;6.53;;;4.67;;
3865;SDS011;1948;53.250;10.412;2023-06-10T09:05:48;13.77;;;4.37;;
3865;SDS011;1948;53.250;10.412;2023-06-10T09:08:16;9.57;;;3.77;;
3865;SDS011;1948;53.250;10.412;2023-06-10T09:10:43;16.27;;;4.73;;
3865;SDS011;1948;53.250;10.412;2023-06-10T09:13:10;11.20;;;4.47;;
3865;SDS011;1948;53.250;10.412;2023-06-10T09:15:37;9.07;;;4.30;;
3865;SDS011;1948;53.250;10.412;2023-06-10T09:18:06;4.90;;;4.27;;
3865;SDS011;1948;53.250;10.412;2023-06-10T09:20:36;9.00;;;4.60;;
3865;SDS011;1948;53.250;10.412;2023-06-10T09:23:08;7.77;;;4.80;;
3865;SDS011;1948;53.250;10.412;2023-06-10T09:25:38;9.07;;;5.00;;
3865;SDS011;1948;53.250;10.412;2023-06-10T09:28:12;9.27;;;4.70;;
3865;SDS011;1948;53.250;10.412;2023-06-10T09:30:41;10.17;;;4.10;;
3865;SDS011;1948;53.250;10.412;2023-06-10T09:33:14;19.07;;;4.37;;
3865;SDS011;1948;53.250;10.412;2023-06-10T09:35:51;13.03;;;5.17;;
3865;SDS011;1948;53.250;10.412;2023-06-10T09:38:22;15.40;;;4.77;;
3865;SDS011;1948;53.250;10.412;2023-06-10T09:40:56;12.00;;;4.40;;
3865;SDS011;1948;53.250;10.412;2023-06-10T09:43:23;17.07;;;4.83;;
3865;SDS011;1948;53.250;10.412;2023-06-10T09:46:04;12.77;;;4.77;;
3865;SDS011;1948;53.250;10.412;2023-06-10T09:48:35;7.73;;;4.60;;
3865;SDS011;1948;53.250;10.412;2023-06-10T09:51:11;6.07;;;4.37;;
3865;SDS011;1948;53.250;10.412;2023-06-10T09:53:47;9.63;;;4.63;;
3865;SDS011;1948;53.250;10.412;2023-06-10T09:56:20;27.77;;;4.60;;
3865;SDS011;1948;53.250;10.412;2023-06-10T09:58:59;9.63;;;5.00;;
3865;SDS011;1948;53.250;10.412;2023-06-10T10:01:26;8.47;;;5.50;;
3865;SDS011;1948;53.250;10.412;2023-06-10T10:03:56;7.63;;;5.20;;
3865;SDS011;1948;53.250;10.412;2023-06-10T10:06:24;8.80;;;4.67;;
3865;SDS011;1948;53.250;10.412;2023-06-10T10:08:53;8.80;;;4.47;;
3865;SDS011;1948;53.250;10.412;2023-06-10T10:11:20;10.10;;;4.70;;
3865;SDS011;1948;53.250;10.412;2023-06-10T10:13:49;11.10;;;5.13;;
3865;SDS011;1948;53.250;10.412;2023-06-10T10:16:27;11.00;;;4.97;;
3865;SDS011;1948;53.250;10.412;2023-06-10T10:19:10;6.70;;;5.27;;
3865;SDS011;1948;53.250;10.412;2023-06-10T10:21:54;8.80;;;4.20;;
3865;SDS011;1948;53.250;10.412;2023-06-10T10:24:33;10.13;;;5.60;;
3865;SDS011;1948;53.250;10.412;2023-06-10T10:27:05;14.03;;;4.90;;
3865;SDS011;1948;53.250;10.412;2023-06-10T10:30:15;9.43;;;6.27;;
3865;SDS011;1948;53.250;10.412;2023-06-10T10:35:28;9.93;;;5.43;;
3865;SDS011;1948;53.250;10.412;2023-06-10T10:37:56;9.00;;;5.07;;
3865;SDS011;1948;53.250;10.412;2023-06-10T10:40:26;17.50;;;5.00;;
3865;SDS011;1948;53.250;10.412;2023-06-10T10:42:56;12.20;;;5.13;;
3865;SDS011;1948;53.250;10.412;2023-06-10T10:45:29;12.43;;;5.37;;
3865;SDS011;1948;53.250;10.412;2023-06-10T10:48:01;8.70;;;4.83;;
3865;SDS011;1948;53.250;10.412;2023-06-10T10:50:38;9.23;;;5.60;;
3865;SDS011;1948;53.250;10.412;2023-06-10T10:53:07;9.83;;;5.37;;
3865;SDS011;1948;53.250;10.412;2023-06-10T10:55:34;6.70;;;5.17;;
3865;SDS011;1948;53.250;10.412;2023-06-10T10:58:07;16.10;;;5.10;;
3865;SDS011;1948;53.250;10.412;2023-06-10T11:00:43;5.33;;;4.83;;
3865;SDS011;1948;53.250;10.412;2023-06-10T11:03:15;7.30;;;5.00;;
3865;SDS011;1948;53.250;10.412;2023-06-10T11:05:47;12.47;;;5.77;;
3865;SDS011;1948;53.250;10.412;2023-06-10T11:10:59;9.73;;;5.63;;
3865;SDS011;1948;53.250;10.412;2023-06-10T11:13:26;8.77;;;5.40;;
3865;SDS011;1948;53.250;10.412;2023-06-10T11:15:56;12.90;;;5.30;;
3865;SDS011;1948;53.250;10.412;2023-06-10T11:21:07;5.90;;;5.17;;
3865;SDS011;1948;53.250;10.412;2023-06-10T11:23:40;8.40;;;5.57;;
3865;SDS011;1948;53.250;10.412;2023-06-10T11:29:09;11.87;;;5.00;;
3865;SDS011;1948;53.250;10.412;2023-06-10T11:31:44;9.63;;;5.27;;
3865;SDS011;1948;53.250;10.412;2023-06-10T11:34:20;9.33;;;5.47;;
3865;SDS011;1948;53.250;10.412;2023-06-10T11:36:55;10.07;;;5.23;;
3865;SDS011;1948;53.250;10.412;2023-06-10T11:39:23;21.77;;;5.03;;
3865;SDS011;1948;53.250;10.412;2023-06-10T11:41:52;22.67;;;6.80;;
3865;SDS011;1948;53.250;10.412;2023-06-10T11:44:20;7.37;;;4.97;;
3865;SDS011;1948;53.250;10.412;2023-06-10T11:46:55;7.40;;;5.13;;
3865;SDS011;1948;53.250;10.412;2023-06-10T11:49:25;15.03;;;5.23;;
3865;SDS011;1948;53.250;10.412;2023-06-10T11:51:55;6.60;;;4.87;;
3865;SDS011;1948;53.250;10.412;2023-06-10T11:54:24;16.23;;;5.23;;
3865;SDS011;1948;53.250;10.412;2023-06-10T11:56:56;17.60;;;5.30;;
3865;SDS011;1948;53.250;10.412;2023-06-10T11:59:29;7.20;;;5.47;;
3865;SDS011;1948;53.250;10.412;2023-06-10T12:01:57;37.30;;;6.13;;
3865;SDS011;1948;53.250;10.412;2023-06-10T12:04:29;10.77;;;5.13;;
3865;SDS011;1948;53.250;10.412;2023-06-10T12:06:56;8.10;;;6.00;;
3865;SDS011;1948;53.250;10.412;2023-06-10T12:12:03;9.60;;;4.93;;
3865;SDS011;1948;53.250;10.412;2023-06-10T12:17:36;7.57;;;5.37;;
3865;SDS011;1948;53.250;10.412;2023-06-10T12:20:08;10.77;;;5.53;;
3865;SDS011;1948;53.250;10.412;2023-06-10T12:22:51;7.40;;;4.93;;
3865;SDS011;1948;53.250;10.412;2023-06-10T12:25:23;10.67;;;4.70;;
3865;SDS011;1948;53.250;10.412;2023-06-10T12:27:53;5.70;;;5.23;;
3865;SDS011;1948;53.250;10.412;2023-06-10T12:30:26;17.83;;;5.60;;
3865;SDS011;1948;53.250;10.412;2023-06-10T12:32:56;10.33;;;5.07;;
3865;SDS011;1948;53.250;10.412;2023-06-10T12:35:25;8.03;;;4.80;;
3865;SDS011;1948;53.250;10.412;2023-06-10T12:40:27;8.53;;;5.37;;
3865;SDS011;1948;53.250;10.412;2023-06-10T12:42:59;15.03;;;5.47;;
3865;SDS011;1948;53.250;10.412;2023-06-10T12:50:53;7.27;;;4.60;;
3865;SDS011;1948;53.250;10.412;2023-06-10T12:53:23;6.33;;;4.40;;
3865;SDS011;1948;53.250;10.412;2023-06-10T12:55:51;5.90;;;4.80;;
3865;SDS011;1948;53.250;10.412;2023-06-10T12:58:20;8.60;;;5.17;;
3865;SDS011;1948;53.250;10.412;2023-06-10T13:00:50;9.80;;;5.00;;
3865;SDS011;1948;53.250;10.412;2023-06-10T13:03:20;10.40;;;4.83;;
3865;SDS011;1948;53.250;10.412;2023-06-10T13:05:47;9.73;;;5.07;;
3865;SDS011;1948;53.250;10.412;2023-06-10T13:08:17;10.37;;;5.17;;
3865;SDS011;1948;53.250;10.412;2023-06-10T13:10:44;15.30;;;4.83;;
3865;SDS011;1948;53.250;10.412;2023-06-10T13:13:15;14.97;;;5.20;;
3865;SDS011;1948;53.250;10.412;2023-06-10T13:15:43;15.93;;;4.70;;
3865;SDS011;1948;53.250;10.412;2023-06-10T13:18:13;9.93;;;5.47;;
3865;SDS011;1948;53.250;10.412;2023-06-10T13:20:40;15.00;;;5.00;;
3865;SDS011;1948;53.250;10.412;2023-06-10T13:23:07;10.47;;;5.13;;
3865;SDS011;1948;53.250;10.412;2023-06-10T13:25:36;6.97;;;5.03;;
3865;SDS011;1948;53.250;10.412;2023-06-10T13:28:07;14.63;;;5.27;;
3865;SDS011;1948;53.250;10.412;2023-06-10T13:30:34;32.57;;;6.07;;
3865;SDS011;1948;53.250;10.412;2023-06-10T13:33:03;8.43;;;5.27;;
3865;SDS011;1948;53.250;10.412;2023-06-10T13:35:33;15.37;;;4.87;;
3865;SDS011;1948;53.250;10.412;2023-06-10T13:38:00;10.67;;;5.00;;
3865;SDS011;1948;53.250;10.412;2023-06-10T13:40:29;4.70;;;4.30;;
3865;SDS011;1948;53.250;10.412;2023-06-10T13:42:56;11.07;;;4.57;;
3865;SDS011;1948;53.250;10.412;2023-06-10T13:45:23;8.10;;;5.97;;
3865;SDS011;1948;53.250;10.412;2023-06-10T13:47:51;22.70;;;5.23;;
3865;SDS011;1948;53.250;10.412;2023-06-10T13:50:18;5.53;;;5.23;;
3865;SDS011;1948;53.250;10.412;2023-06-10T13:52:45;13.80;;;5.40;;
3865;SDS011;1948;53.250;10.412;2023-06-10T13:55:12;11.40;;;5.60;;
3865;SDS011;1948;53.250;10.412;2023-06-10T13:57:43;12.63;;;4.87;;
3865;SDS011;1948;53.250;10.412;2023-06-10T14:00:15;13.50;;;5.67;;
3865;SDS011;1948;53.250;10.412;2023-06-10T14:02:43;16.43;;;5.40;;
3865;SDS011;1948;53.250;10.412;2023-06-10T14:05:13;5.73;;;5.23;;
3865;SDS011;1948;53.250;10.412;2023-06-10T14:07:45;7.20;;;4.97;;
3865;SDS011;1948;53.250;10.412;2023-06-10T14:10:12;23.03;;;4.97;;
3865;SDS011;1948;53.250;10.412;2023-06-10T14:12:39;15.77;;;5.30;;
3865;SDS011;1948;53.250;10.412;2023-06-10T14:15:06;8.57;;;4.57;;
3865;SDS011;1948;53.250;10.412;2023-06-10T14:17:37;9.20;;;5.00;;
3865;SDS011;1948;53.250;10.412;2023-06-10T14:20:06;7.20;;;5.97;;
3865;SDS011;1948;53.250;10.412;2023-06-10T14:22:39;10.97;;;6.10;;
3865;SDS011;1948;53.250;10.412;2023-06-10T14:25:06;6.27;;;5.43;;
3865;SDS011;1948;53.250;10.412;2023-06-10T14:27:34;12.40;;;5.33;;
3865;SDS011;1948;53.250;10.412;2023-06-10T14:30:02;7.57;;;5.33;;
3865;SDS011;1948;53.250;10.412;2023-06-10T14:32:31;7.00;;;5.27;;
3865;SDS011;1948;53.250;10.412;2023-06-10T14:34:59;5.97;;;5.10;;
3865;SDS011;1948;53.250;10.412;2023-06-10T14:37:28;10.63;;;5.50;;
3865;SDS011;1948;53.250;10.412;2023-06-10T14:39:58;9.67;;;5.43;;
3865;SDS011;1948;53.250;10.412;2023-06-10T14:42:25;6.50;;;5.37;;
3865;SDS011;1948;53.250;10.412;2023-06-10T14:44:55;5.90;;;5.40;;
3865;SDS011;1948;53.250;10.412;2023-06-10T14:47:22;16.80;;;5.43;;
3865;SDS011;1948;53.250;10.412;2023-06-10T14:49:49;6.47;;;5.40;;
3865;SDS011;1948;53.250;10.412;2023-06-10T14:52:19;9.33;;;5.63;;
3865;SDS011;1948;53.250;10.412;2023-06-10T14:54:46;12.13;;;5.20;;
3865;SDS011;1948;53.250;10.412;2023-06-10T14:57:15;6.93;;;5.87;;
3865;SDS011;1948;53.250;10.412;2023-06-10T14:59:42;15.30;;;5.40;;
3865;SDS011;1948;53.250;10.412;2023-06-10T15:02:09;9.13;;;5.70;;
3865;SDS011;1948;53.250;10.412;2023-06-10T15:04:39;6.27;;;5.60;;
3865;SDS011;1948;53.250;10.412;2023-06-10T15:07:09;15.50;;;5.27;;
3865;SDS011;1948;53.250;10.412;2023-06-10T15:09:36;8.10;;;5.60;;
3865;SDS011;1948;53.250;10.412;2023-06-10T15:12:05;16.47;;;5.30;;
3865;SDS011;1948;53.250;10.412;2023-06-10T15:14:32;6.80;;;5.27;;
3865;SDS011;1948;53.250;10.412;2023-06-10T15:16:59;10.13;;;5.93;;
3865;SDS011;1948;53.250;10.412;2023-06-10T15:19:26;6.73;;;5.80;;
3865;SDS011;1948;53.250;10.412;2023-06-10T15:21:56;7.90;;;5.40;;
3865;SDS011;1948;53.250;10.412;2023-06-10T15:24:26;13.73;;;6.00;;
3865;SDS011;1948;53.250;10.412;2023-06-10T15:26:53;8.17;;;5.20;;
3865;SDS011;1948;53.250;10.412;2023-06-10T15:29:23;8.43;;;5.83;;
3865;SDS011;1948;53.250;10.412;2023-06-10T15:31:53;5.80;;;5.40;;
3865;SDS011;1948;53.250;10.412;2023-06-10T15:34:25;6.33;;;5.47;;
3865;SDS011;1948;53.250;10.412;2023-06-10T15:36:54;10.30;;;4.97;;
3865;SDS011;1948;53.250;10.412;2023-06-10T15:39:24;6.60;;;4.20;;